sensor_id;sensor_type;location;lat;lon;timestamp;temperature;humidity
69208;SHT31;56321;47.662;8.878;2022-09-29T00:00:24;11.28;79.35
69208;SHT31;56321;47.662;8.878;2022-09-29T00:02:51;11.28;79.43
69208;SHT31;56321;47.662;8.878;2022-09-29T00:05:16;11.29;79.33
69208;SHT31;56321;47.662;8.878;2022-09-29T00:07:42;11.29;79.40
69208;SHT31;56321;47.662;8.878;2022-09-29T00:10:07;11.28;79.44
69208;SHT31;56321;47.662;8.878;2022-09-29T00:12:32;11.28;79.55
69208;SHT31;56321;47.662;8.878;2022-09-29T00:14:58;11.26;79.54
69208;SHT31;56321;47.662;8.878;2022-09-29T00:17:23;11.26;79.56
69208;SHT31;56321;47.662;8.878;2022-09-29T00:19:49;11.26;79.60
69208;SHT31;56321;47.662;8.878;2022-09-29T00:22:14;11.25;79.48
69208;SHT31;56321;47.662;8.878;2022-09-29T00:24:40;11.26;79.33
69208;SHT31;56321;47.662;8.878;2022-09-29T00:27:05;11.26;79.38
69208;SHT31;56321;47.662;8.878;2022-09-29T00:29:30;11.25;79.32
69208;SHT31;56321;47.662;8.878;2022-09-29T00:31:56;11.23;79.41
69208;SHT31;56321;47.662;8.878;2022-09-29T00:34:21;11.23;79.37
69208;SHT31;56321;47.662;8.878;2022-09-29T00:36:46;11.25;79.33
69208;SHT31;56321;47.662;8.878;2022-09-29T00:39:12;11.23;79.23
69208;SHT31;56321;47.662;8.878;2022-09-29T00:41:38;11.22;79.08
69208;SHT31;56321;47.662;8.878;2022-09-29T00:46:57;11.21;79.16
69208;SHT31;56321;47.662;8.878;2022-09-29T00:49:51;11.18;79.15
69208;SHT31;56321;47.662;8.878;2022-09-29T00:52:33;11.19;79.30
69208;SHT31;56321;47.662;8.878;2022-09-29T00:57:33;11.16;79.22
69208;SHT31;56321;47.662;8.878;2022-09-29T01:00:05;11.18;79.20
69208;SHT31;56321;47.662;8.878;2022-09-29T01:02:34;11.19;79.32
69208;SHT31;56321;47.662;8.878;2022-09-29T01:05:02;11.22;79.21
69208;SHT31;56321;47.662;8.878;2022-09-29T01:07:29;11.16;79.22
69208;SHT31;56321;47.662;8.878;2022-09-29T01:09:55;11.18;79.22
69208;SHT31;56321;47.662;8.878;2022-09-29T01:12:21;11.19;79.17
69208;SHT31;56321;47.662;8.878;2022-09-29T01:14:48;11.16;79.32
69208;SHT31;56321;47.662;8.878;2022-09-29T01:17:13;11.16;79.26
69208;SHT31;56321;47.662;8.878;2022-09-29T01:27:58;11.10;79.26
69208;SHT31;56321;47.662;8.878;2022-09-29T01:31:02;11.11;79.28
69208;SHT31;56321;47.662;8.878;2022-09-29T01:33:46;11.12;79.15
69208;SHT31;56321;47.662;8.878;2022-09-29T01:41:43;11.08;79.20
69208;SHT31;56321;47.662;8.878;2022-09-29T01:44:21;11.08;79.27
69208;SHT31;56321;47.662;8.878;2022-09-29T01:46:55;11.05;79.34
69208;SHT31;56321;47.662;8.878;2022-09-29T01:49:23;11.07;79.43
69208;SHT31;56321;47.662;8.878;2022-09-29T01:51:59;11.07;79.39
69208;SHT31;56321;47.662;8.878;2022-09-29T01:54:47;11.05;79.42
69208;SHT31;56321;47.662;8.878;2022-09-29T01:57:36;11.04;79.43
69208;SHT31;56321;47.662;8.878;2022-09-29T02:00:06;11.05;79.33
69208;SHT31;56321;47.662;8.878;2022-09-29T02:02:56;11.04;79.30
69208;SHT31;56321;47.662;8.878;2022-09-29T02:05:45;11.04;79.34
69208;SHT31;56321;47.662;8.878;2022-09-29T02:08:15;11.04;79.31
69208;SHT31;56321;47.662;8.878;2022-09-29T02:11:01;11.04;79.48
69208;SHT31;56321;47.662;8.878;2022-09-29T02:13:40;11.05;79.44
69208;SHT31;56321;47.662;8.878;2022-09-29T02:16:10;11.04;79.49
69208;SHT31;56321;47.662;8.878;2022-09-29T02:18:41;11.02;79.52
69208;SHT31;56321;47.662;8.878;2022-09-29T02:21:08;11.05;79.45
69208;SHT31;56321;47.662;8.878;2022-09-29T02:23:34;11.05;79.52
69208;SHT31;56321;47.662;8.878;2022-09-29T02:26:01;11.08;79.54
69208;SHT31;56321;47.662;8.878;2022-09-29T02:28:26;11.07;79.63
69208;SHT31;56321;47.662;8.878;2022-09-29T02:30:52;11.07;79.64
69208;SHT31;56321;47.662;8.878;2022-09-29T02:33:19;11.07;79.61
69208;SHT31;56321;47.662;8.878;2022-09-29T02:44:26;11.08;79.79
69208;SHT31;56321;47.662;8.878;2022-09-29T02:55:03;11.02;79.37
69208;SHT31;56321;47.662;8.878;2022-09-29T02:58:06;11.02;79.49
69208;SHT31;56321;47.662;8.878;2022-09-29T03:00:34;11.04;79.46
69208;SHT31;56321;47.662;8.878;2022-09-29T03:02:59;11.04;79.41
69208;SHT31;56321;47.662;8.878;2022-09-29T03:05:25;11.02;79.52
69208;SHT31;56321;47.662;8.878;2022-09-29T03:07:50;11.04;79.45
69208;SHT31;56321;47.662;8.878;2022-09-29T03:10:16;11.04;79.40
69208;SHT31;56321;47.662;8.878;2022-09-29T03:12:42;11.00;79.43
69208;SHT31;56321;47.662;8.878;2022-09-29T03:15:08;11.02;79.54
69208;SHT31;56321;47.662;8.878;2022-09-29T03:17:35;11.02;79.39
69208;SHT31;56321;47.662;8.878;2022-09-29T03:20:01;11.04;79.37
69208;SHT31;56321;47.662;8.878;2022-09-29T03:22:26;11.01;79.39
69208;SHT31;56321;47.662;8.878;2022-09-29T03:24:51;11.01;79.37
69208;SHT31;56321;47.662;8.878;2022-09-29T03:27:17;11.01;79.37
69208;SHT31;56321;47.662;8.878;2022-09-29T03:29:42;11.02;79.44
69208;SHT31;56321;47.662;8.878;2022-09-29T03:32:08;11.00;79.40
69208;SHT31;56321;47.662;8.878;2022-09-29T03:34:34;11.00;79.37
69208;SHT31;56321;47.662;8.878;2022-09-29T03:36:59;11.00;79.41
69208;SHT31;56321;47.662;8.878;2022-09-29T03:39:25;11.00;79.48
69208;SHT31;56321;47.662;8.878;2022-09-29T03:41:50;11.04;79.55
69208;SHT31;56321;47.662;8.878;2022-09-29T03:44:16;11.00;79.58
69208;SHT31;56321;47.662;8.878;2022-09-29T03:46:42;11.01;79.47
69208;SHT31;56321;47.662;8.878;2022-09-29T03:49:11;11.00;79.28
69208;SHT31;56321;47.662;8.878;2022-09-29T03:51:37;10.98;79.26
69208;SHT31;56321;47.662;8.878;2022-09-29T03:54:03;11.00;79.39
69208;SHT31;56321;47.662;8.878;2022-09-29T03:56:28;11.00;79.50
69208;SHT31;56321;47.662;8.878;2022-09-29T03:58:53;10.97;79.58
69208;SHT31;56321;47.662;8.878;2022-09-29T04:01:19;11.00;79.53
69208;SHT31;56321;47.662;8.878;2022-09-29T04:03:44;10.98;79.56
69208;SHT31;56321;47.662;8.878;2022-09-29T04:06:10;11.01;79.58
69208;SHT31;56321;47.662;8.878;2022-09-29T04:08:35;10.95;79.55
69208;SHT31;56321;47.662;8.878;2022-09-29T04:11:01;10.95;79.64
69208;SHT31;56321;47.662;8.878;2022-09-29T04:13:26;10.95;79.61
69208;SHT31;56321;47.662;8.878;2022-09-29T04:15:58;10.94;79.61
69208;SHT31;56321;47.662;8.878;2022-09-29T04:18:24;10.94;79.63
69208;SHT31;56321;47.662;8.878;2022-09-29T04:20:49;10.95;79.56
69208;SHT31;56321;47.662;8.878;2022-09-29T04:23:14;10.94;79.54
69208;SHT31;56321;47.662;8.878;2022-09-29T04:25:40;10.93;79.55
69208;SHT31;56321;47.662;8.878;2022-09-29T04:28:05;10.93;79.53
69208;SHT31;56321;47.662;8.878;2022-09-29T04:30:31;10.91;79.57
69208;SHT31;56321;47.662;8.878;2022-09-29T04:32:56;10.91;79.61
69208;SHT31;56321;47.662;8.878;2022-09-29T04:35:21;10.91;79.66
69208;SHT31;56321;47.662;8.878;2022-09-29T04:37:47;10.91;79.79
69208;SHT31;56321;47.662;8.878;2022-09-29T04:40:12;10.91;79.81
69208;SHT31;56321;47.662;8.878;2022-09-29T04:42:38;10.90;79.72
69208;SHT31;56321;47.662;8.878;2022-09-29T04:45:04;10.90;79.80
69208;SHT31;56321;47.662;8.878;2022-09-29T04:47:30;10.93;79.70
69208;SHT31;56321;47.662;8.878;2022-09-29T04:49:55;10.90;79.83
69208;SHT31;56321;47.662;8.878;2022-09-29T04:52:20;10.93;79.90
69208;SHT31;56321;47.662;8.878;2022-09-29T04:54:46;10.94;79.82
69208;SHT31;56321;47.662;8.878;2022-09-29T04:57:11;10.93;79.75
69208;SHT31;56321;47.662;8.878;2022-09-29T04:59:36;10.88;79.75
69208;SHT31;56321;47.662;8.878;2022-09-29T05:02:02;10.93;79.84
69208;SHT31;56321;47.662;8.878;2022-09-29T05:04:27;10.91;79.74
69208;SHT31;56321;47.662;8.878;2022-09-29T05:06:52;10.90;79.89
69208;SHT31;56321;47.662;8.878;2022-09-29T05:09:18;10.91;80.00
69208;SHT31;56321;47.662;8.878;2022-09-29T05:11:43;10.91;79.97
69208;SHT31;56321;47.662;8.878;2022-09-29T05:14:11;10.93;80.02
69208;SHT31;56321;47.662;8.878;2022-09-29T05:16:36;10.94;80.08
69208;SHT31;56321;47.662;8.878;2022-09-29T05:19:02;10.93;80.11
69208;SHT31;56321;47.662;8.878;2022-09-29T05:21:27;10.95;80.15
69208;SHT31;56321;47.662;8.878;2022-09-29T05:23:53;10.98;80.26
69208;SHT31;56321;47.662;8.878;2022-09-29T05:26:18;11.00;80.23
69208;SHT31;56321;47.662;8.878;2022-09-29T05:28:45;11.00;80.20
69208;SHT31;56321;47.662;8.878;2022-09-29T05:31:12;11.02;80.16
69208;SHT31;56321;47.662;8.878;2022-09-29T05:33:38;11.00;80.22
69208;SHT31;56321;47.662;8.878;2022-09-29T05:36:05;11.02;80.14
69208;SHT31;56321;47.662;8.878;2022-09-29T05:38:36;11.05;80.18
69208;SHT31;56321;47.662;8.878;2022-09-29T05:41:04;11.05;80.23
69208;SHT31;56321;47.662;8.878;2022-09-29T05:43:30;11.08;80.23
69208;SHT31;56321;47.662;8.878;2022-09-29T05:46:00;11.05;80.13
69208;SHT31;56321;47.662;8.878;2022-09-29T05:48:26;11.07;80.31
69208;SHT31;56321;47.662;8.878;2022-09-29T05:50:53;11.11;80.19
69208;SHT31;56321;47.662;8.878;2022-09-29T05:53:18;11.12;80.21
69208;SHT31;56321;47.662;8.878;2022-09-29T05:55:44;11.12;80.25
69208;SHT31;56321;47.662;8.878;2022-09-29T05:58:09;11.15;80.14
69208;SHT31;56321;47.662;8.878;2022-09-29T06:00:34;11.14;80.11
69208;SHT31;56321;47.662;8.878;2022-09-29T06:03:01;11.12;80.06
69208;SHT31;56321;47.662;8.878;2022-09-29T06:05:27;11.14;80.19
69208;SHT31;56321;47.662;8.878;2022-09-29T06:07:53;11.15;80.23
69208;SHT31;56321;47.662;8.878;2022-09-29T06:10:19;11.18;80.23
69208;SHT31;56321;47.662;8.878;2022-09-29T06:12:44;11.16;80.30
69208;SHT31;56321;47.662;8.878;2022-09-29T06:15:10;11.18;80.32
69208;SHT31;56321;47.662;8.878;2022-09-29T06:17:37;11.23;80.41
69208;SHT31;56321;47.662;8.878;2022-09-29T06:20:04;11.25;80.48
69208;SHT31;56321;47.662;8.878;2022-09-29T06:22:29;11.28;80.31
69208;SHT31;56321;47.662;8.878;2022-09-29T06:24:55;11.29;80.28
69208;SHT31;56321;47.662;8.878;2022-09-29T06:27:20;11.31;80.17
69208;SHT31;56321;47.662;8.878;2022-09-29T06:29:46;11.32;79.96
69208;SHT31;56321;47.662;8.878;2022-09-29T06:32:11;11.32;79.74
69208;SHT31;56321;47.662;8.878;2022-09-29T06:34:36;11.35;79.61
69208;SHT31;56321;47.662;8.878;2022-09-29T06:37:22;11.32;79.53
69208;SHT31;56321;47.662;8.878;2022-09-29T06:40:03;11.32;79.59
69208;SHT31;56321;47.662;8.878;2022-09-29T06:42:29;11.35;79.71
69208;SHT31;56321;47.662;8.878;2022-09-29T06:44:54;11.35;79.77
69208;SHT31;56321;47.662;8.878;2022-09-29T06:47:19;11.36;79.99
69208;SHT31;56321;47.662;8.878;2022-09-29T06:49:45;11.36;80.09
69208;SHT31;56321;47.662;8.878;2022-09-29T06:52:10;11.38;79.92
69208;SHT31;56321;47.662;8.878;2022-09-29T06:54:35;11.39;79.77
69208;SHT31;56321;47.662;8.878;2022-09-29T06:57:01;11.38;79.80
69208;SHT31;56321;47.662;8.878;2022-09-29T06:59:26;11.42;80.03
69208;SHT31;56321;47.662;8.878;2022-09-29T07:01:51;11.46;79.99
69208;SHT31;56321;47.662;8.878;2022-09-29T07:04:17;11.47;79.80
69208;SHT31;56321;47.662;8.878;2022-09-29T07:06:43;11.46;79.78
69208;SHT31;56321;47.662;8.878;2022-09-29T07:09:10;11.49;79.80
69208;SHT31;56321;47.662;8.878;2022-09-29T07:11:41;11.50;79.58
69208;SHT31;56321;47.662;8.878;2022-09-29T07:14:06;11.56;79.70
69208;SHT31;56321;47.662;8.878;2022-09-29T07:16:31;11.58;79.78
69208;SHT31;56321;47.662;8.878;2022-09-29T07:18:57;11.58;79.49
69208;SHT31;56321;47.662;8.878;2022-09-29T07:21:22;11.60;79.93
69208;SHT31;56321;47.662;8.878;2022-09-29T07:23:48;11.65;79.90
69208;SHT31;56321;47.662;8.878;2022-09-29T07:26:14;11.69;79.88
69208;SHT31;56321;47.662;8.878;2022-09-29T07:28:43;11.74;80.22
69208;SHT31;56321;47.662;8.878;2022-09-29T07:31:12;11.73;79.67
69208;SHT31;56321;47.662;8.878;2022-09-29T07:33:37;11.76;79.86
69208;SHT31;56321;47.662;8.878;2022-09-29T07:36:03;11.80;79.67
69208;SHT31;56321;47.662;8.878;2022-09-29T07:38:29;11.84;79.63
69208;SHT31;56321;47.662;8.878;2022-09-29T07:41:07;11.83;79.83
69208;SHT31;56321;47.662;8.878;2022-09-29T07:43:33;11.88;79.89
69208;SHT31;56321;47.662;8.878;2022-09-29T07:45:59;11.88;79.50
69208;SHT31;56321;47.662;8.878;2022-09-29T07:48:25;11.91;79.49
69208;SHT31;56321;47.662;8.878;2022-09-29T07:50:50;11.93;79.51
69208;SHT31;56321;47.662;8.878;2022-09-29T07:53:17;11.95;79.20
69208;SHT31;56321;47.662;8.878;2022-09-29T07:55:42;11.94;79.37
69208;SHT31;56321;47.662;8.878;2022-09-29T07:58:08;11.97;79.85
69208;SHT31;56321;47.662;8.878;2022-09-29T08:00:33;12.04;79.85
69208;SHT31;56321;47.662;8.878;2022-09-29T08:03:04;12.08;79.69
69208;SHT31;56321;47.662;8.878;2022-09-29T08:05:31;12.16;79.89
69208;SHT31;56321;47.662;8.878;2022-09-29T08:08:01;12.22;79.46
69208;SHT31;56321;47.662;8.878;2022-09-29T08:10:28;12.32;79.64
69208;SHT31;56321;47.662;8.878;2022-09-29T08:12:53;12.38;79.28
69208;SHT31;56321;47.662;8.878;2022-09-29T08:15:19;12.44;79.25
69208;SHT31;56321;47.662;8.878;2022-09-29T08:17:45;12.48;79.24
69208;SHT31;56321;47.662;8.878;2022-09-29T08:20:10;12.55;79.03
69208;SHT31;56321;47.662;8.878;2022-09-29T08:22:36;12.55;78.68
69208;SHT31;56321;47.662;8.878;2022-09-29T08:25:01;12.55;78.44
69208;SHT31;56321;47.662;8.878;2022-09-29T08:27:26;12.57;78.71
69208;SHT31;56321;47.662;8.878;2022-09-29T08:29:53;12.57;78.93
69208;SHT31;56321;47.662;8.878;2022-09-29T08:32:18;12.59;78.89
69208;SHT31;56321;47.662;8.878;2022-09-29T08:34:44;12.63;78.50
69208;SHT31;56321;47.662;8.878;2022-09-29T08:37:09;12.63;78.00
69208;SHT31;56321;47.662;8.878;2022-09-29T08:39:35;12.66;78.32
69208;SHT31;56321;47.662;8.878;2022-09-29T08:42:13;12.66;77.73
69208;SHT31;56321;47.662;8.878;2022-09-29T08:45:03;12.72;78.42
69208;SHT31;56321;47.662;8.878;2022-09-29T08:47:46;12.77;77.76
69208;SHT31;56321;47.662;8.878;2022-09-29T08:50:29;12.80;77.86
69208;SHT31;56321;47.662;8.878;2022-09-29T08:52:57;12.82;77.76
69208;SHT31;56321;47.662;8.878;2022-09-29T08:55:33;12.86;77.72
69208;SHT31;56321;47.662;8.878;2022-09-29T08:58:00;12.84;77.01
69208;SHT31;56321;47.662;8.878;2022-09-29T09:00:34;12.83;77.25
69208;SHT31;56321;47.662;8.878;2022-09-29T09:16:38;12.96;77.13
69208;SHT31;56321;47.662;8.878;2022-09-29T09:22:19;13.04;78.14
69208;SHT31;56321;47.662;8.878;2022-09-29T09:27:36;13.17;77.06
69208;SHT31;56321;47.662;8.878;2022-09-29T09:30:06;13.21;76.44
69208;SHT31;56321;47.662;8.878;2022-09-29T09:32:47;13.23;77.26
69208;SHT31;56321;47.662;8.878;2022-09-29T09:37:49;13.25;76.57
69208;SHT31;56321;47.662;8.878;2022-09-29T09:40:33;13.32;76.59
69208;SHT31;56321;47.662;8.878;2022-09-29T09:43:06;13.44;77.37
69208;SHT31;56321;47.662;8.878;2022-09-29T09:45:38;13.59;76.98
69208;SHT31;56321;47.662;8.878;2022-09-29T09:48:15;13.70;76.17
69208;SHT31;56321;47.662;8.878;2022-09-29T09:50:43;13.83;75.84
69208;SHT31;56321;47.662;8.878;2022-09-29T09:53:21;13.93;76.74
69208;SHT31;56321;47.662;8.878;2022-09-29T10:01:47;14.16;76.94
69208;SHT31;56321;47.662;8.878;2022-09-29T10:04:13;14.21;76.59
69208;SHT31;56321;47.662;8.878;2022-09-29T10:06:39;14.23;75.46
69208;SHT31;56321;47.662;8.878;2022-09-29T10:09:04;14.26;75.03
69208;SHT31;56321;47.662;8.878;2022-09-29T10:11:31;14.30;74.96
69208;SHT31;56321;47.662;8.878;2022-09-29T10:14:02;14.37;75.46
69208;SHT31;56321;47.662;8.878;2022-09-29T10:16:36;14.55;75.67
69208;SHT31;56321;47.662;8.878;2022-09-29T10:19:05;14.72;75.05
69208;SHT31;56321;47.662;8.878;2022-09-29T10:23:56;14.95;73.32
69208;SHT31;56321;47.662;8.878;2022-09-29T10:28:55;14.98;72.84
69208;SHT31;56321;47.662;8.878;2022-09-29T10:31:26;14.86;72.31
69208;SHT31;56321;47.662;8.878;2022-09-29T10:33:58;14.81;72.71
69208;SHT31;56321;47.662;8.878;2022-09-29T10:36:27;14.78;72.46
69208;SHT31;56321;47.662;8.878;2022-09-29T10:38:53;14.79;73.05
69208;SHT31;56321;47.662;8.878;2022-09-29T10:41:20;14.95;73.68
69208;SHT31;56321;47.662;8.878;2022-09-29T10:43:47;15.26;72.56
69208;SHT31;56321;47.662;8.878;2022-09-29T10:49:18;16.52;67.87
69208;SHT31;56321;47.662;8.878;2022-09-29T10:52:04;16.92;68.63
69208;SHT31;56321;47.662;8.878;2022-09-29T10:54:33;16.92;66.64
69208;SHT31;56321;47.662;8.878;2022-09-29T10:57:00;16.80;67.81
69208;SHT31;56321;47.662;8.878;2022-09-29T10:59:45;16.60;67.07
69208;SHT31;56321;47.662;8.878;2022-09-29T11:04:51;16.30;68.13
69208;SHT31;56321;47.662;8.878;2022-09-29T11:07:18;16.23;69.10
69208;SHT31;56321;47.662;8.878;2022-09-29T11:09:43;16.16;68.25
69208;SHT31;56321;47.662;8.878;2022-09-29T11:14:46;16.09;70.29
69208;SHT31;56321;47.662;8.878;2022-09-29T11:19:51;16.13;69.32
69208;SHT31;56321;47.662;8.878;2022-09-29T11:25:17;16.12;67.75
69208;SHT31;56321;47.662;8.878;2022-09-29T11:33:56;16.12;67.68
69208;SHT31;56321;47.662;8.878;2022-09-29T11:36:32;16.18;68.31
69208;SHT31;56321;47.662;8.878;2022-09-29T11:42:08;16.52;68.79
69208;SHT31;56321;47.662;8.878;2022-09-29T12:00:04;16.73;66.11
69208;SHT31;56321;47.662;8.878;2022-09-29T12:05:27;16.52;64.03
69208;SHT31;56321;47.662;8.878;2022-09-29T12:11:06;16.34;66.11
69208;SHT31;56321;47.662;8.878;2022-09-29T12:16:12;16.32;67.37
69208;SHT31;56321;47.662;8.878;2022-09-29T12:18:52;16.32;65.77
69208;SHT31;56321;47.662;8.878;2022-09-29T12:21:48;16.30;66.99
69208;SHT31;56321;47.662;8.878;2022-09-29T12:24:18;16.30;65.85
69208;SHT31;56321;47.662;8.878;2022-09-29T12:26:47;16.29;66.19
69208;SHT31;56321;47.662;8.878;2022-09-29T12:31:47;16.30;66.24
69208;SHT31;56321;47.662;8.878;2022-09-29T12:34:24;16.29;64.66
69208;SHT31;56321;47.662;8.878;2022-09-29T12:36:58;16.26;65.94
69208;SHT31;56321;47.662;8.878;2022-09-29T12:42:42;16.23;62.90
69208;SHT31;56321;47.662;8.878;2022-09-29T12:45:33;16.20;65.58
69208;SHT31;56321;47.662;8.878;2022-09-29T12:50:45;16.29;65.93
69208;SHT31;56321;47.662;8.878;2022-09-29T12:53:24;16.23;65.55
69208;SHT31;56321;47.662;8.878;2022-09-29T12:56:07;16.22;66.10
69208;SHT31;56321;47.662;8.878;2022-09-29T12:58:44;16.20;66.29
69208;SHT31;56321;47.662;8.878;2022-09-29T13:01:29;16.18;64.91
69208;SHT31;56321;47.662;8.878;2022-09-29T13:27:39;15.67;66.56
69208;SHT31;56321;47.662;8.878;2022-09-29T13:30:17;15.61;66.36
69208;SHT31;56321;47.662;8.878;2022-09-29T13:33:01;15.58;66.93
69208;SHT31;56321;47.662;8.878;2022-09-29T13:35:27;15.49;66.23
69208;SHT31;56321;47.662;8.878;2022-09-29T13:40:27;15.36;66.13
69208;SHT31;56321;47.662;8.878;2022-09-29T13:42:55;15.26;67.46
69208;SHT31;56321;47.662;8.878;2022-09-29T13:50:46;15.00;67.24
69208;SHT31;56321;47.662;8.878;2022-09-29T13:58:36;14.86;68.97
69208;SHT31;56321;47.662;8.878;2022-09-29T14:01:07;14.84;68.60
69208;SHT31;56321;47.662;8.878;2022-09-29T14:06:17;14.76;68.62
69208;SHT31;56321;47.662;8.878;2022-09-29T14:13:52;14.68;67.17
69208;SHT31;56321;47.662;8.878;2022-09-29T14:21:53;14.54;67.55
69208;SHT31;56321;47.662;8.878;2022-09-29T14:29:48;14.41;69.74
69208;SHT31;56321;47.662;8.878;2022-09-29T14:32:22;14.41;70.52
69208;SHT31;56321;47.662;8.878;2022-09-29T14:34:50;14.38;70.79
69208;SHT31;56321;47.662;8.878;2022-09-29T14:37:21;14.40;71.31
69208;SHT31;56321;47.662;8.878;2022-09-29T14:39:48;14.37;71.65
69208;SHT31;56321;47.662;8.878;2022-09-29T14:42:32;14.30;72.19
69208;SHT31;56321;47.662;8.878;2022-09-29T14:44:59;14.28;72.37
69208;SHT31;56321;47.662;8.878;2022-09-29T14:48:00;14.23;72.69
69208;SHT31;56321;47.662;8.878;2022-09-29T14:50:53;14.17;73.02
69208;SHT31;56321;47.662;8.878;2022-09-29T14:54:03;14.14;73.22
69208;SHT31;56321;47.662;8.878;2022-09-29T14:56:53;14.12;73.73
69208;SHT31;56321;47.662;8.878;2022-09-29T15:02:00;14.13;73.93
69208;SHT31;56321;47.662;8.878;2022-09-29T15:04:30;14.09;73.51
69208;SHT31;56321;47.662;8.878;2022-09-29T15:07:02;14.09;73.67
69208;SHT31;56321;47.662;8.878;2022-09-29T15:09:34;14.07;73.75
69208;SHT31;56321;47.662;8.878;2022-09-29T15:12:00;14.07;74.24
69208;SHT31;56321;47.662;8.878;2022-09-29T15:14:30;14.07;74.53
69208;SHT31;56321;47.662;8.878;2022-09-29T15:27:21;13.96;75.21
69208;SHT31;56321;47.662;8.878;2022-09-29T15:29:47;13.95;75.16
69208;SHT31;56321;47.662;8.878;2022-09-29T15:32:26;13.91;75.40
69208;SHT31;56321;47.662;8.878;2022-09-29T15:34:53;13.91;75.30
69208;SHT31;56321;47.662;8.878;2022-09-29T15:37:24;13.91;75.41
69208;SHT31;56321;47.662;8.878;2022-09-29T15:39:52;13.90;75.56
69208;SHT31;56321;47.662;8.878;2022-09-29T15:42:22;13.89;75.65
69208;SHT31;56321;47.662;8.878;2022-09-29T15:44:54;13.90;75.97
69208;SHT31;56321;47.662;8.878;2022-09-29T15:47:32;13.87;76.25
69208;SHT31;56321;47.662;8.878;2022-09-29T15:50:03;13.91;76.25
69208;SHT31;56321;47.662;8.878;2022-09-29T15:52:29;13.90;76.24
69208;SHT31;56321;47.662;8.878;2022-09-29T15:54:56;13.89;76.32
69208;SHT31;56321;47.662;8.878;2022-09-29T15:57:41;13.85;76.45
69208;SHT31;56321;47.662;8.878;2022-09-29T16:03:15;13.86;76.64
69208;SHT31;56321;47.662;8.878;2022-09-29T16:05:53;13.83;76.89
69208;SHT31;56321;47.662;8.878;2022-09-29T16:08:23;13.86;76.75
69208;SHT31;56321;47.662;8.878;2022-09-29T16:10:55;13.80;76.81
69208;SHT31;56321;47.662;8.878;2022-09-29T16:13:24;13.76;76.99
69208;SHT31;56321;47.662;8.878;2022-09-29T16:15:54;13.78;77.04
69208;SHT31;56321;47.662;8.878;2022-09-29T16:18:24;13.75;77.27
69208;SHT31;56321;47.662;8.878;2022-09-29T16:20:52;13.75;77.24
69208;SHT31;56321;47.662;8.878;2022-09-29T16:26:50;13.66;77.47
69208;SHT31;56321;47.662;8.878;2022-09-29T16:31:25;13.65;77.51
69208;SHT31;56321;47.662;8.878;2022-09-29T16:33:53;13.66;77.56
69208;SHT31;56321;47.662;8.878;2022-09-29T16:36:21;13.63;77.77
69208;SHT31;56321;47.662;8.878;2022-09-29T16:38:49;13.62;77.82
69208;SHT31;56321;47.662;8.878;2022-09-29T16:41:26;13.61;77.70
69208;SHT31;56321;47.662;8.878;2022-09-29T16:44:49;13.59;77.73
69208;SHT31;56321;47.662;8.878;2022-09-29T16:49:25;13.57;77.77
69208;SHT31;56321;47.662;8.878;2022-09-29T16:51:53;13.54;77.80
69208;SHT31;56321;47.662;8.878;2022-09-29T16:54:30;13.54;77.86
69208;SHT31;56321;47.662;8.878;2022-09-29T16:57:15;13.48;78.03
69208;SHT31;56321;47.662;8.878;2022-09-29T16:59:43;13.48;77.90
69208;SHT31;56321;47.662;8.878;2022-09-29T17:02:12;13.44;77.97
69208;SHT31;56321;47.662;8.878;2022-09-29T17:04:37;13.44;78.01
69208;SHT31;56321;47.662;8.878;2022-09-29T17:07:03;13.41;78.09
69208;SHT31;56321;47.662;8.878;2022-09-29T17:09:29;13.42;78.08
69208;SHT31;56321;47.662;8.878;2022-09-29T17:11:54;13.38;78.21
69208;SHT31;56321;47.662;8.878;2022-09-29T17:14:20;13.37;78.15
69208;SHT31;56321;47.662;8.878;2022-09-29T17:16:46;13.38;78.19
69208;SHT31;56321;47.662;8.878;2022-09-29T17:19:13;13.37;78.14
69208;SHT31;56321;47.662;8.878;2022-09-29T17:21:39;13.35;78.31
69208;SHT31;56321;47.662;8.878;2022-09-29T17:24:04;13.32;78.21
69208;SHT31;56321;47.662;8.878;2022-09-29T17:29:18;13.28;78.17
69208;SHT31;56321;47.662;8.878;2022-09-29T17:31:43;13.24;78.17
69208;SHT31;56321;47.662;8.878;2022-09-29T17:34:08;13.27;78.33
69208;SHT31;56321;47.662;8.878;2022-09-29T17:36:35;13.24;78.33
69208;SHT31;56321;47.662;8.878;2022-09-29T17:39:01;13.21;78.36
69208;SHT31;56321;47.662;8.878;2022-09-29T17:41:26;13.21;78.41
69208;SHT31;56321;47.662;8.878;2022-09-29T17:43:52;13.20;78.37
69208;SHT31;56321;47.662;8.878;2022-09-29T17:46:17;13.17;78.40
69208;SHT31;56321;47.662;8.878;2022-09-29T17:48:43;13.17;78.48
69208;SHT31;56321;47.662;8.878;2022-09-29T17:51:13;13.13;78.55
69208;SHT31;56321;47.662;8.878;2022-09-29T17:53:40;13.10;78.62
69208;SHT31;56321;47.662;8.878;2022-09-29T17:56:15;13.10;78.62
69208;SHT31;56321;47.662;8.878;2022-09-29T17:58:45;13.10;78.50
69208;SHT31;56321;47.662;8.878;2022-09-29T18:01:10;13.08;78.50
69208;SHT31;56321;47.662;8.878;2022-09-29T18:03:36;13.08;78.46
69208;SHT31;56321;47.662;8.878;2022-09-29T18:06:01;13.06;78.65
69208;SHT31;56321;47.662;8.878;2022-09-29T18:08:27;13.06;78.69
69208;SHT31;56321;47.662;8.878;2022-09-29T18:10:58;13.02;78.62
69208;SHT31;56321;47.662;8.878;2022-09-29T18:13:25;13.02;78.63
69208;SHT31;56321;47.662;8.878;2022-09-29T18:15:52;13.02;78.70
69208;SHT31;56321;47.662;8.878;2022-09-29T18:18:19;13.00;78.76
69208;SHT31;56321;47.662;8.878;2022-09-29T18:20:46;12.97;78.87
69208;SHT31;56321;47.662;8.878;2022-09-29T18:23:14;12.99;78.89
69208;SHT31;56321;47.662;8.878;2022-09-29T18:25:41;12.99;78.91
69208;SHT31;56321;47.662;8.878;2022-09-29T18:28:11;13.00;78.92
69208;SHT31;56321;47.662;8.878;2022-09-29T18:30:39;12.97;78.88
69208;SHT31;56321;47.662;8.878;2022-09-29T18:33:09;12.97;78.90
69208;SHT31;56321;47.662;8.878;2022-09-29T18:35:37;12.99;78.86
69208;SHT31;56321;47.662;8.878;2022-09-29T18:38:02;12.97;78.95
69208;SHT31;56321;47.662;8.878;2022-09-29T18:40:29;12.97;79.03
69208;SHT31;56321;47.662;8.878;2022-09-29T18:42:55;12.99;79.07
69208;SHT31;56321;47.662;8.878;2022-09-29T18:45:25;12.96;79.05
69208;SHT31;56321;47.662;8.878;2022-09-29T18:47:59;12.94;79.03
69208;SHT31;56321;47.662;8.878;2022-09-29T18:50:36;12.94;79.04
69208;SHT31;56321;47.662;8.878;2022-09-29T18:53:07;12.94;79.00
69208;SHT31;56321;47.662;8.878;2022-09-29T18:55:33;12.93;79.10
69208;SHT31;56321;47.662;8.878;2022-09-29T18:57:59;12.93;79.02
69208;SHT31;56321;47.662;8.878;2022-09-29T19:00:28;12.92;79.10
69208;SHT31;56321;47.662;8.878;2022-09-29T19:02:55;12.92;79.10
69208;SHT31;56321;47.662;8.878;2022-09-29T19:05:25;12.90;79.18
69208;SHT31;56321;47.662;8.878;2022-09-29T19:07:56;12.89;79.26
69208;SHT31;56321;47.662;8.878;2022-09-29T19:10:23;12.89;79.26